This is the latest recevied weather packets stored in our database for station/object iz1wiy-2. If no packets are shown the sender has not sent any weather packets the latest 10 day(s).
| Time | Temp. | Humidity | Pressure | Rain* | Wind** | Luminosity | Snow |
|---|---|---|---|---|---|---|---|
| 1777777803 | 15° C | 48% | 1019.9 hPa | 0 mm | - | - | - |
| 1777777503 | 15° C | 48% | 1019.8 hPa | 0 mm | - | - | - |
| 1777777203 | 15° C | 49% | 1019.8 hPa | 0 mm | - | - | - |
| 1777776903 | 15° C | 49% | 1019.8 hPa | 0 mm | - | - | - |
| 1777776603 | 15° C | 50% | 1019.8 hPa | 0 mm | - | - | - |
| 1777776003 | 14.44° C | 51% | 1019.8 hPa | 0 mm | - | - | - |
| 1777775703 | 14.44° C | 52% | 1019.9 hPa | 0 mm | - | - | - |
| 1777775103 | 14.44° C | 53% | 1019.9 hPa | 0 mm | - | - | - |
| 1777767904 | 15.56° C | 51% | 1020.3 hPa | 0 mm | - | - | - |
| 1777767604 | 15.56° C | 51% | 1020.4 hPa | 0 mm | - | - | - |
| 1777767004 | 15.56° C | 52% | 1020.3 hPa | 0 mm | - | - | - |
| 1777764004 | 16.67° C | 48% | 1020.4 hPa | 0 mm | - | - | - |
| 1777761304 | 16.11° C | 49% | 1020.9 hPa | 0 mm | - | - | - |
| 1777760703 | 16.11° C | 50% | 1021 hPa | 0 mm | - | - | - |
| 1777760103 | 16.11° C | 50% | 1021 hPa | 0 mm | - | - | - |
| 1777759804 | 16.11° C | 49% | 1021 hPa | 0 mm | - | - | - |
| 1777759504 | 16.11° C | 48% | 1021.1 hPa | 0 mm | - | - | - |
| 1777757704 | 16.11° C | 51% | 1021.2 hPa | 0 mm | - | - | - |
| 1777757103 | 16.11° C | 52% | 1021.1 hPa | 0 mm | - | - | - |
| 1777756503 | 15.56° C | 54% | 1021.1 hPa | 0 mm | - | - | - |
| 1777755604 | 15.56° C | 53% | 1021.3 hPa | 0 mm | - | - | - |
| 1777753504 | 15.56° C | 53% | 1021.2 hPa | 0 mm | - | - | - |
| 1777753203 | 16.11° C | 52% | 1021.3 hPa | 0 mm | - | - | - |
| 1777752604 | 16.11° C | 55% | 1021.1 hPa | 0 mm | - | - | - |
| 1777752004 | 16.11° C | 54% | 1021.1 hPa | 0 mm | - | - | - |
* Rain latest hour (hover to see other rain measurements)
** Current wind speed in m/s (hover to see current wind gust speed)